M. S. Shahan II — WDD7097 — position and weather

sailwx.info

Track history (hours):
 
Tides and Currents Weather Stations Pressure Air Temp Water Temp Dewpoint Dewpoint Depression Visibility Wind Speed Wind Dir Waves Ship Positions

M. S. Shahan II

Owner: Department of Homeland Security Plum Island Facility, Greenport, NY. More information available from US FCC via Universal Licensing System and Coast Guard Vessel Documentation Center.

Last reported at 2017-Sep-21 20:50 UTC. Time now 2017-Sep-24 15:43 UTC.
Position N 41°17' W 072°21'.

Length 40 m; draft 3 m.

Type: Passenger vessel. MMSI: 367181880.

Date/timePositionNaut miles runAvg speedWind from/ knotsBaromVisibWave heightAir tempDewpointWater temp
2017-Sep-21 20:50N 41°17' W 072°21'413.5
2017-Sep-21 20:30N 41°13' W 072°17'4 6.3
2017-Sep-21 19:49N 41°10' W 072°13'723.3
2017-Sep-21 19:30N 41°15' W 072°20'3 5.8
2017-Sep-21 19:00N 41°13' W 072°17'3 1.4
2017-Sep-21 16:40N 41°11' W 072°14'421.3
2017-Sep-21 16:30N 41°13' W 072°18'4 8.6
2017-Sep-21 16:00N 41°17' W 072°21'5 1.3
2017-Sep-21 12:08N 41°13' W 072°17'320.4
2017-Sep-21 12:00N 41°15' W 072°20'2 4.9
2017-Sep-21 11:30N 41°17' W 072°21'6 6.2
2017-Sep-21 10:35N 41°12' W 072°16'221.4
2017-Sep-21 10:30N 41°14' W 072°18'4 7.9
2017-Sep-21 10:00N 41°17' W 072°21'0 0.0
2017-Sep-21 04:18N 41°17' W 072°21'516.8
2017-Sep-21 04:00N 41°13' W 072°17'2 0.7
2017-Sep-21 01:35N 41°12' W 072°16'221.2
2017-Sep-21 01:30N 41°13' W 072°17'2 4.6
2017-Sep-21 01:00N 41°15' W 072°19'4 3.7
2017-Sep-20 23:49N 41°11' W 072°15'621.4
2017-Sep-20 23:31N 41°16' W 072°21'3 5.2
2017-Sep-20 23:01N 41°14' W 072°19'4 2.2
2017-Sep-20 21:19N 41°11' W 072°15'722.4
2017-Sep-20 21:00N 41°17' W 072°21'5 9.0
2017-Sep-20 20:30N 41°13' W 072°17'3 4.9
2017-Sep-20 19:51N 41°11' W 072°14'822.1
2017-Sep-20 19:31N 41°17' W 072°21'5 9.1
2017-Sep-20 19:01N 41°14' W 072°17'1 0.5
2017-Sep-20 16:35N 41°12' W 072°16'221.5
2017-Sep-20 16:30N 41°14' W 072°18'4 7.8
2017-Sep-20 16:00N 41°17' W 072°21'6 1.4
2017-Sep-20 12:10N 41°12' W 072°16'319.8
2017-Sep-20 12:00N 41°15' W 072°19'2 4.9
2017-Sep-20 11:30N 41°17' W 072°21'6 6.2
2017-Sep-20 10:36N 41°12' W 072°16'220.5
2017-Sep-20 10:31N 41°14' W 072°18'4 8.0
2017-Sep-20 10:00N 41°17' W 072°21'0 0.0
2017-Sep-20 09:29N 41°17' W 072°21'0 0.0
2017-Sep-20 09:01N 41°17' W 072°21'0 0.0
2017-Sep-20 08:31N 41°17' W 072°21'0 0.0
2017-Sep-20 08:01N 41°17' W 072°21'0 0.0
2017-Sep-20 07:31N 41°17' W 072°21'0 0.0
2017-Sep-20 07:00N 41°17' W 072°21'0 0.0
2017-Sep-20 06:30N 41°17' W 072°21'0 0.0
2017-Sep-20 06:01N 41°17' W 072°21'0 0.0
2017-Sep-20 05:31N 41°17' W 072°21'0 0.0
2017-Sep-20 05:01N 41°17' W 072°21'0 0.0
2017-Sep-20 04:31N 41°17' W 072°21'4 8.7
2017-Sep-20 04:01N 41°13' W 072°17'3 0.8
2017-Sep-20 00:14N 41°11' W 072°15'519.9
2017-Sep-20 00:00N 41°15' W 072°19'3 5.2
2017-Sep-19 23:30N 41°17' W 072°21'712.2
2017-Sep-19 22:58N 41°12' W 072°16'1 0.3
2017-Sep-19 21:13N 41°12' W 072°16'522.2
2017-Sep-19 21:01N 41°15' W 072°20'4 7.0
2017-Sep-19 20:30N 41°13' W 072°17'1 1.9
2017-Sep-19 19:50N 41°12' W 072°17'618.8
2017-Sep-19 19:30N 41°17' W 072°21'5 9.5
2017-Sep-19 19:00N 41°13' W 072°17'1 0.5
2017-Sep-19 16:35N 41°12' W 072°16'221.6
2017-Sep-19 16:30N 41°14' W 072°17'4 7.5
2017-Sep-19 16:00N 41°16' W 072°21'5 1.2
2017-Sep-19 12:05N 41°13' W 072°17'119.7
2017-Sep-19 12:01N 41°14' W 072°18'2 4.4
2017-Sep-19 11:31N 41°15' W 072°20'5 6.5
2017-Sep-19 10:48N 41°12' W 072°16'412.6
2017-Sep-19 10:30N 41°15' W 072°19'2 4.9
2017-Sep-19 10:00N 41°17' W 072°21'0 0.0
2017-Sep-19 04:15N 41°17' W 072°21'312.9
2017-Sep-19 04:00N 41°14' W 072°19'3 0.6
2017-Sep-18 23:41N 41°12' W 072°17'421.0
2017-Sep-18 23:30N 41°15' W 072°20'2 3.9
2017-Sep-18 23:01N 41°14' W 072°18'2 1.4
2017-Sep-18 21:15N 41°12' W 072°16'521.6
2017-Sep-18 21:00N 41°16' W 072°21'3 6.0
2017-Sep-18 20:31N 41°14' W 072°18'2 3.1
2017-Sep-18 19:47N 41°12' W 072°16'620.5
2017-Sep-18 19:31N 41°16' W 072°20'4 8.2
2017-Sep-18 19:00N 41°13' W 072°17'1 0.3
2017-Sep-18 16:35N 41°13' W 072°17'222.3
2017-Sep-18 16:30N 41°14' W 072°18'4 7.2
2017-Sep-18 16:01N 41°17' W 072°21'7 1.8
2017-Sep-18 12:14N 41°11' W 072°15'420.1
2017-Sep-18 12:00N 41°14' W 072°19'2 4.6
2017-Sep-18 11:30N 41°16' W 072°21'6 7.7
2017-Sep-18 10:40N 41°11' W 072°15'320.2
2017-Sep-18 10:31N 41°14' W 072°19'4 7.4
2017-Sep-18 10:00N 41°17' W 072°21'0 0.1
2017-Sep-18 04:14N 41°17' W 072°21'519.4
2017-Sep-18 04:00N 41°13' W 072°17'2 0.3
2017-Sep-17 22:17N 41°11' W 072°15'620.9
2017-Sep-17 22:01N 41°16' W 072°20'3 5.6
2017-Sep-17 21:30N 41°14' W 072°18'3 0.1
2017-Sep-15 21:19N 41°11' W 072°15'620.4
2017-Sep-15 21:00N 41°16' W 072°20'4 7.5
2017-Sep-15 20:30N 41°13' W 072°17'4 6.5
2017-Sep-15 19:54N 41°11' W 072°13'820.2
2017-Sep-15 19:30N 41°16' W 072°20'3 6.2
2017-Sep-15 19:01N 41°14' W 072°18'5 2.3
2017-Sep-15 16:37N 41°10' W 072°12'319.6
2017-Sep-15 16:29N 41°12' W 072°15'613.3
2017-Sep-15 16:01N 41°17' W 072°21'7 1.9
2017-Sep-15 12:12N 41°11' W 072°14'421.6
2017-Sep-15 12:00N 41°14' W 072°18'3 6.3
2017-Sep-15 11:31N 41°17' W 072°21'5 5.1
2017-Sep-15 10:34N 41°13' W 072°17'121.0
2017-Sep-15 10:30N 41°14' W 072°18'4 7.5
2017-Sep-15 10:00N 41°17' W 072°21'0 0.0
2017-Sep-14 20:53N 41°17' W 072°21'4 9.9
2017-Sep-14 20:31N 41°14' W 072°18'3 4.6
2017-Sep-14 19:49N 41°12' W 072°15'619.6
2017-Sep-14 19:30N 41°16' W 072°20'4 7.6
2017-Sep-14 19:01N 41°13' W 072°17'3 1.3
2017-Sep-14 16:39N 41°11' W 072°14'423.0
2017-Sep-14 16:30N 41°13' W 072°18'4 7.2
2017-Sep-14 16:01N 41°16' W 072°21'5 1.3
2017-Sep-14 12:05N 41°12' W 072°16'221.6
2017-Sep-14 12:00N 41°14' W 072°18'3 6.7
2017-Sep-14 11:30N 41°16' W 072°20'4 4.9
2017-Sep-14 10:35N 41°13' W 072°17'220.3
2017-Sep-14 10:30N 41°14' W 072°18'4 7.1
2017-Sep-14 10:00N 41°17' W 072°21'0 0.0
2017-Sep-14 04:17N 41°17' W 072°21'518.4
2017-Sep-14 04:00N 41°13' W 072°17'4 2.1
2017-Sep-14 01:58N 41°09' W 072°13'919.7
2017-Sep-14 01:30N 41°17' W 072°21'5 9.6
2017-Sep-14 01:00N 41°13' W 072°16'4 3.2
2017-Sep-13 23:51N 41°10' W 072°13'823.0
2017-Sep-13 23:30N 41°16' W 072°21'4 7.8
2017-Sep-13 23:00N 41°13' W 072°17'2 0.9
2017-Sep-13 21:13N 41°12' W 072°18'419.2
2017-Sep-13 21:00N 41°16' W 072°21'4 7.6
2017-Sep-13 20:31N 41°13' W 072°17'3 5.3
2017-Sep-13 19:56N 41°11' W 072°14'817.9
2017-Sep-13 19:30N 41°17' W 072°21'4 7.8
2017-Sep-13 19:00N 41°14' W 072°18'5 2.5
2017-Sep-13 16:51N 41°10' W 072°12'618.8
2017-Sep-13 16:31N 41°14' W 072°19'3 5.5
2017-Sep-13 16:00N 41°17' W 072°21'8 2.3
2017-Sep-13 12:16N 41°10' W 072°13'622.2
2017-Sep-13 12:01N 41°14' W 072°18'3 5.9
2017-Sep-13 11:31N 41°17' W 072°21'911.3
2017-Sep-13 10:45N 41°10' W 072°13'521.2
2017-Sep-13 10:30N 41°14' W 072°18'4 7.5
2017-Sep-13 10:00N 41°17' W 072°21'0 0.0
2017-Sep-13 04:19N 41°17' W 072°21'514.9
2017-Sep-13 04:00N 41°13' W 072°17'5 2.0
2017-Sep-13 01:35N 41°09' W 072°14'215.8
2017-Sep-13 01:29N 41°11' W 072°14'817.2
2017-Sep-13 01:00N 41°17' W 072°21'714.2
2017-Sep-13 00:30N 41°11' W 072°15'2 3.3
2017-Sep-12 23:53N 41°10' W 072°12'821.7
2017-Sep-12 23:30N 41°16' W 072°21'4 7.4
2017-Sep-12 23:00N 41°13' W 072°17'5 7.1
2017-Sep-12 22:21N 41°10' W 072°13'1 1.5
2017-Sep-12 21:48N 41°10' W 072°12'1 3.6
2017-Sep-12 21:29N 41°09' W 072°13'919.5
2017-Sep-12 21:00N 41°17' W 072°21'4 8.8
2017-Sep-12 20:30N 41°13' W 072°17'5 9.0
2017-Sep-12 20:00N 41°10' W 072°13'918.0
2017-Sep-12 19:30N 41°17' W 072°21'4 8.3
2017-Sep-12 19:00N 41°13' W 072°18'5 2.4
2017-Sep-12 16:51N 41°10' W 072°12'618.3
2017-Sep-12 16:30N 41°14' W 072°19'3 5.7
2017-Sep-12 16:00N 41°17' W 072°21'8 2.0
2017-Sep-12 12:12N 41°11' W 072°14'423.1
2017-Sep-12 12:00N 41°14' W 072°18'4 7.3
2017-Sep-12 11:30N 41°17' W 072°21'917.3
2017-Sep-12 11:00N 41°10' W 072°13'5 9.3
2017-Sep-12 10:30N 41°13' W 072°18'4 8.4
2017-Sep-12 10:00N 41°17' W 072°21'0 0.0
2017-Sep-12 04:18N 41°17' W 072°21'413.5
2017-Sep-12 04:00N 41°14' W 072°18'6 1.5
2017-Sep-12 00:14N 41°10' W 072°12'311.4
2017-Sep-12 00:01N 41°12' W 072°15'713.8
2017-Sep-11 23:30N 41°17' W 072°21'5 9.4
2017-Sep-11 23:01N 41°14' W 072°17'5 7.1
2017-Sep-11 22:21N 41°10' W 072°12'1 1.0
2017-Sep-11 21:23N 41°09' W 072°13'822.3
2017-Sep-11 21:00N 41°16' W 072°21'  
Track history (hours):
 
Tides and Currents Weather Stations Pressure Air Temp Water Temp Dewpoint Dewpoint Depression Visibility Wind Speed Wind Dir Waves Ship Positions

M. S. Shahan II

Owner: Department of Homeland Security Plum Island Facility, Greenport, NY. More information available from US FCC via Universal Licensing System and Coast Guard Vessel Documentation Center.

Last reported at 2017-Sep-21 20:50 UTC. Time now 2017-Sep-24 15:43 UTC.
Position N 41°17' W 072°21'.

Length 40 m; draft 3 m.

Type: Passenger vessel. MMSI: 367181880.

Date/timePositionNaut miles runAvg speedWind from/ knotsBaromVisibWave heightAir tempDewpointWater temp
2017-Sep-21 20:50N 41°17' W 072°21'413.5
2017-Sep-21 20:30N 41°13' W 072°17'4 6.3
2017-Sep-21 19:49N 41°10' W 072°13'723.3
2017-Sep-21 19:30N 41°15' W 072°20'3 5.8
2017-Sep-21 19:00N 41°13' W 072°17'3 1.4
2017-Sep-21 16:40N 41°11' W 072°14'421.3
2017-Sep-21 16:30N 41°13' W 072°18'4 8.6
2017-Sep-21 16:00N 41°17' W 072°21'5 1.3
2017-Sep-21 12:08N 41°13' W 072°17'320.4
2017-Sep-21 12:00N 41°15' W 072°20'2 4.9
2017-Sep-21 11:30N 41°17' W 072°21'6 6.2
2017-Sep-21 10:35N 41°12' W 072°16'221.4
2017-Sep-21 10:30N 41°14' W 072°18'4 7.9
2017-Sep-21 10:00N 41°17' W 072°21'0 0.0
2017-Sep-21 04:18N 41°17' W 072°21'516.8
2017-Sep-21 04:00N 41°13' W 072°17'2 0.7
2017-Sep-21 01:35N 41°12' W 072°16'221.2
2017-Sep-21 01:30N 41°13' W 072°17'2 4.6
2017-Sep-21 01:00N 41°15' W 072°19'4 3.7
2017-Sep-20 23:49N 41°11' W 072°15'621.4
2017-Sep-20 23:31N 41°16' W 072°21'3 5.2
2017-Sep-20 23:01N 41°14' W 072°19'4 2.2
2017-Sep-20 21:19N 41°11' W 072°15'722.4
2017-Sep-20 21:00N 41°17' W 072°21'5 9.0
2017-Sep-20 20:30N 41°13' W 072°17'3 4.9
2017-Sep-20 19:51N 41°11' W 072°14'822.1
2017-Sep-20 19:31N 41°17' W 072°21'5 9.1
2017-Sep-20 19:01N 41°14' W 072°17'1 0.5
2017-Sep-20 16:35N 41°12' W 072°16'221.5
2017-Sep-20 16:30N 41°14' W 072°18'4 7.8
2017-Sep-20 16:00N 41°17' W 072°21'6 1.4
2017-Sep-20 12:10N 41°12' W 072°16'319.8
2017-Sep-20 12:00N 41°15' W 072°19'2 4.9
2017-Sep-20 11:30N 41°17' W 072°21'6 6.2
2017-Sep-20 10:36N 41°12' W 072°16'220.5
2017-Sep-20 10:31N 41°14' W 072°18'4 8.0
2017-Sep-20 10:00N 41°17' W 072°21'0 0.0
2017-Sep-20 09:29N 41°17' W 072°21'0 0.0
2017-Sep-20 09:01N 41°17' W 072°21'0 0.0
2017-Sep-20 08:31N 41°17' W 072°21'0 0.0
2017-Sep-20 08:01N 41°17' W 072°21'0 0.0
2017-Sep-20 07:31N 41°17' W 072°21'0 0.0
2017-Sep-20 07:00N 41°17' W 072°21'0 0.0
2017-Sep-20 06:30N 41°17' W 072°21'0 0.0
2017-Sep-20 06:01N 41°17' W 072°21'0 0.0
2017-Sep-20 05:31N 41°17' W 072°21'0 0.0
2017-Sep-20 05:01N 41°17' W 072°21'0 0.0
2017-Sep-20 04:31N 41°17' W 072°21'4 8.7
2017-Sep-20 04:01N 41°13' W 072°17'3 0.8
2017-Sep-20 00:14N 41°11' W 072°15'519.9
2017-Sep-20 00:00N 41°15' W 072°19'3 5.2
2017-Sep-19 23:30N 41°17' W 072°21'712.2
2017-Sep-19 22:58N 41°12' W 072°16'1 0.3
2017-Sep-19 21:13N 41°12' W 072°16'522.2
2017-Sep-19 21:01N 41°15' W 072°20'4 7.0
2017-Sep-19 20:30N 41°13' W 072°17'1 1.9
2017-Sep-19 19:50N 41°12' W 072°17'618.8
2017-Sep-19 19:30N 41°17' W 072°21'5 9.5
2017-Sep-19 19:00N 41°13' W 072°17'1 0.5
2017-Sep-19 16:35N 41°12' W 072°16'221.6
2017-Sep-19 16:30N 41°14' W 072°17'4 7.5
2017-Sep-19 16:00N 41°16' W 072°21'5 1.2
2017-Sep-19 12:05N 41°13' W 072°17'119.7
2017-Sep-19 12:01N 41°14' W 072°18'2 4.4
2017-Sep-19 11:31N 41°15' W 072°20'5 6.5
2017-Sep-19 10:48N 41°12' W 072°16'412.6
2017-Sep-19 10:30N 41°15' W 072°19'2 4.9
2017-Sep-19 10:00N 41°17' W 072°21'0 0.0
2017-Sep-19 04:15N 41°17' W 072°21'312.9
2017-Sep-19 04:00N 41°14' W 072°19'3 0.6
2017-Sep-18 23:41N 41°12' W 072°17'421.0
2017-Sep-18 23:30N 41°15' W 072°20'2 3.9
2017-Sep-18 23:01N 41°14' W 072°18'2 1.4
2017-Sep-18 21:15N 41°12' W 072°16'521.6
2017-Sep-18 21:00N 41°16' W 072°21'3 6.0
2017-Sep-18 20:31N 41°14' W 072°18'2 3.1
2017-Sep-18 19:47N 41°12' W 072°16'620.5
2017-Sep-18 19:31N 41°16' W 072°20'4 8.2
2017-Sep-18 19:00N 41°13' W 072°17'1 0.3
2017-Sep-18 16:35N 41°13' W 072°17'222.3
2017-Sep-18 16:30N 41°14' W 072°18'4 7.2
2017-Sep-18 16:01N 41°17' W 072°21'7 1.8
2017-Sep-18 12:14N 41°11' W 072°15'420.1
2017-Sep-18 12:00N 41°14' W 072°19'2 4.6
2017-Sep-18 11:30N 41°16' W 072°21'6 7.7
2017-Sep-18 10:40N 41°11' W 072°15'320.2
2017-Sep-18 10:31N 41°14' W 072°19'4 7.4
2017-Sep-18 10:00N 41°17' W 072°21'0 0.1
2017-Sep-18 04:14N 41°17' W 072°21'519.4
2017-Sep-18 04:00N 41°13' W 072°17'2 0.3
2017-Sep-17 22:17N 41°11' W 072°15'620.9
2017-Sep-17 22:01N 41°16' W 072°20'3 5.6
2017-Sep-17 21:30N 41°14' W 072°18'3 0.1
2017-Sep-15 21:19N 41°11' W 072°15'620.4
2017-Sep-15 21:00N 41°16' W 072°20'4 7.5
2017-Sep-15 20:30N 41°13' W 072°17'4 6.5
2017-Sep-15 19:54N 41°11' W 072°13'820.2
2017-Sep-15 19:30N 41°16' W 072°20'3 6.2
2017-Sep-15 19:01N 41°14' W 072°18'5 2.3
2017-Sep-15 16:37N 41°10' W 072°12'319.6
2017-Sep-15 16:29N 41°12' W 072°15'613.3
2017-Sep-15 16:01N 41°17' W 072°21'7 1.9
2017-Sep-15 12:12N 41°11' W 072°14'421.6
2017-Sep-15 12:00N 41°14' W 072°18'3 6.3
2017-Sep-15 11:31N 41°17' W 072°21'5 5.1
2017-Sep-15 10:34N 41°13' W 072°17'121.0
2017-Sep-15 10:30N 41°14' W 072°18'4 7.5
2017-Sep-15 10:00N 41°17' W 072°21'0 0.0
2017-Sep-14 20:53N 41°17' W 072°21'4 9.9
2017-Sep-14 20:31N 41°14' W 072°18'3 4.6
2017-Sep-14 19:49N 41°12' W 072°15'619.6
2017-Sep-14 19:30N 41°16' W 072°20'4 7.6
2017-Sep-14 19:01N 41°13' W 072°17'3 1.3
2017-Sep-14 16:39N 41°11' W 072°14'423.0
2017-Sep-14 16:30N 41°13' W 072°18'4 7.2
2017-Sep-14 16:01N 41°16' W 072°21'5 1.3
2017-Sep-14 12:05N 41°12' W 072°16'221.6
2017-Sep-14 12:00N 41°14' W 072°18'3 6.7
2017-Sep-14 11:30N 41°16' W 072°20'4 4.9
2017-Sep-14 10:35N 41°13' W 072°17'220.3
2017-Sep-14 10:30N 41°14' W 072°18'4 7.1
2017-Sep-14 10:00N 41°17' W 072°21'0 0.0
2017-Sep-14 04:17N 41°17' W 072°21'518.4
2017-Sep-14 04:00N 41°13' W 072°17'4 2.1
2017-Sep-14 01:58N 41°09' W 072°13'919.7
2017-Sep-14 01:30N 41°17' W 072°21'5 9.6
2017-Sep-14 01:00N 41°13' W 072°16'4 3.2
2017-Sep-13 23:51N 41°10' W 072°13'823.0
2017-Sep-13 23:30N 41°16' W 072°21'4 7.8
2017-Sep-13 23:00N 41°13' W 072°17'2 0.9
2017-Sep-13 21:13N 41°12' W 072°18'419.2
2017-Sep-13 21:00N 41°16' W 072°21'4 7.6
2017-Sep-13 20:31N 41°13' W 072°17'3 5.3
2017-Sep-13 19:56N 41°11' W 072°14'817.9
2017-Sep-13 19:30N 41°17' W 072°21'4 7.8
2017-Sep-13 19:00N 41°14' W 072°18'5 2.5
2017-Sep-13 16:51N 41°10' W 072°12'618.8
2017-Sep-13 16:31N 41°14' W 072°19'3 5.5
2017-Sep-13 16:00N 41°17' W 072°21'8 2.3
2017-Sep-13 12:16N 41°10' W 072°13'622.2
2017-Sep-13 12:01N 41°14' W 072°18'3 5.9
2017-Sep-13 11:31N 41°17' W 072°21'911.3
2017-Sep-13 10:45N 41°10' W 072°13'521.2
2017-Sep-13 10:30N 41°14' W 072°18'4 7.5
2017-Sep-13 10:00N 41°17' W 072°21'0 0.0
2017-Sep-13 04:19N 41°17' W 072°21'514.9
2017-Sep-13 04:00N 41°13' W 072°17'5 2.0
2017-Sep-13 01:35N 41°09' W 072°14'215.8
2017-Sep-13 01:29N 41°11' W 072°14'817.2
2017-Sep-13 01:00N 41°17' W 072°21'714.2
2017-Sep-13 00:30N 41°11' W 072°15'2 3.3
2017-Sep-12 23:53N 41°10' W 072°12'821.7
2017-Sep-12 23:30N 41°16' W 072°21'4 7.4
2017-Sep-12 23:00N 41°13' W 072°17'5 7.1
2017-Sep-12 22:21N 41°10' W 072°13'1 1.5
2017-Sep-12 21:48N 41°10' W 072°12'1 3.6
2017-Sep-12 21:29N 41°09' W 072°13'919.5
2017-Sep-12 21:00N 41°17' W 072°21'4 8.8
2017-Sep-12 20:30N 41°13' W 072°17'5 9.0
2017-Sep-12 20:00N 41°10' W 072°13'918.0
2017-Sep-12 19:30N 41°17' W 072°21'4 8.3
2017-Sep-12 19:00N 41°13' W 072°18'5 2.4
2017-Sep-12 16:51N 41°10' W 072°12'618.3
2017-Sep-12 16:30N 41°14' W 072°19'3 5.7
2017-Sep-12 16:00N 41°17' W 072°21'8 2.0
2017-Sep-12 12:12N 41°11' W 072°14'423.1
2017-Sep-12 12:00N 41°14' W 072°18'4 7.3
2017-Sep-12 11:30N 41°17' W 072°21'917.3
2017-Sep-12 11:00N 41°10' W 072°13'5 9.3
2017-Sep-12 10:30N 41°13' W 072°18'4 8.4
2017-Sep-12 10:00N 41°17' W 072°21'0 0.0
2017-Sep-12 04:18N 41°17' W 072°21'413.5
2017-Sep-12 04:00N 41°14' W 072°18'6 1.5
2017-Sep-12 00:14N 41°10' W 072°12'311.4
2017-Sep-12 00:01N 41°12' W 072°15'713.8
2017-Sep-11 23:30N 41°17' W 072°21'5 9.4
2017-Sep-11 23:01N 41°14' W 072°17'5 7.1
2017-Sep-11 22:21N 41°10' W 072°12'1 1.0
2017-Sep-11 21:23N 41°09' W 072°13'822.3
2017-Sep-11 21:00N 41°16' W 072°21'  

Dump ship's entire track history